Aviation Digital Data Service (ADDS)

Output produced by METARs form (0645 UTC 24 April 2014)
found at http://www.aviationweather.gov/adds/metars/
 
KJFK 240544Z 2406/2512 31019G27KT P6SM SKC 
     FM241400 32024G36KT P6SM SKC 
     FM242200 33018G30KT P6SM SKC 
     FM250200 33012G18KT P6SM SKC 
     FM250400 33009KT P6SM SKC